sensor_id;sensor_type;location;lat;lon;timestamp;temperature;humidity
74220;DHT22;62580;54.416;11.120;2022-09-12T00:02:36;22.30;64.50
74220;DHT22;62580;54.416;11.120;2022-09-12T00:12:36;22.30;64.40
74220;DHT22;62580;54.416;11.120;2022-09-12T00:22:38;22.30;64.40
74220;DHT22;62580;54.416;11.120;2022-09-12T00:32:39;22.30;64.40
74220;DHT22;62580;54.416;11.120;2022-09-12T00:42:41;22.30;64.40
74220;DHT22;62580;54.416;11.120;2022-09-12T00:52:44;22.20;64.30
74220;DHT22;62580;54.416;11.120;2022-09-12T01:02:50;22.20;64.30
74220;DHT22;62580;54.416;11.120;2022-09-12T01:12:52;22.20;64.30
74220;DHT22;62580;54.416;11.120;2022-09-12T01:23:21;22.20;64.40
74220;DHT22;62580;54.416;11.120;2022-09-12T01:33:34;22.20;64.20
74220;DHT22;62580;54.416;11.120;2022-09-12T01:43:40;22.20;64.20
74220;DHT22;62580;54.416;11.120;2022-09-12T01:53:47;22.20;64.30
74220;DHT22;62580;54.416;11.120;2022-09-12T02:03:52;22.20;64.20
74220;DHT22;62580;54.416;11.120;2022-09-12T02:14:00;22.20;64.20
74220;DHT22;62580;54.416;11.120;2022-09-12T02:24:04;22.10;64.10
74220;DHT22;62580;54.416;11.120;2022-09-12T02:34:17;22.10;64.10
74220;DHT22;62580;54.416;11.120;2022-09-12T02:44:21;22.10;64.10
74220;DHT22;62580;54.416;11.120;2022-09-12T02:54:24;22.10;64.00
74220;DHT22;62580;54.416;11.120;2022-09-12T03:04:42;22.00;63.90
74220;DHT22;62580;54.416;11.120;2022-09-12T03:14:59;22.10;64.00
74220;DHT22;62580;54.416;11.120;2022-09-12T03:25:10;22.10;64.00
74220;DHT22;62580;54.416;11.120;2022-09-12T03:35:14;22.10;64.00
74220;DHT22;62580;54.416;11.120;2022-09-12T03:45:15;22.00;63.80
74220;DHT22;62580;54.416;11.120;2022-09-12T03:55:17;22.00;63.80
74220;DHT22;62580;54.416;11.120;2022-09-12T04:05:18;22.00;63.80
74220;DHT22;62580;54.416;11.120;2022-09-12T04:15:20;22.00;63.80
74220;DHT22;62580;54.416;11.120;2022-09-12T04:25:21;22.00;63.80
74220;DHT22;62580;54.416;11.120;2022-09-12T04:35:23;21.90;63.60
74220;DHT22;62580;54.416;11.120;2022-09-12T04:45:24;21.90;63.60
74220;DHT22;62580;54.416;11.120;2022-09-12T04:55:26;21.90;63.50
74220;DHT22;62580;54.416;11.120;2022-09-12T05:05:27;21.90;63.50
74220;DHT22;62580;54.416;11.120;2022-09-12T05:15:29;21.90;63.50
74220;DHT22;62580;54.416;11.120;2022-09-12T05:25:29;21.90;63.40
74220;DHT22;62580;54.416;11.120;2022-09-12T05:35:32;21.90;63.50
74220;DHT22;62580;54.416;11.120;2022-09-12T05:45:32;21.90;63.40
74220;DHT22;62580;54.416;11.120;2022-09-12T05:55:34;21.90;63.30
74220;DHT22;62580;54.416;11.120;2022-09-12T06:05:35;21.90;63.20
74220;DHT22;62580;54.416;11.120;2022-09-12T06:15:37;21.90;63.20
74220;DHT22;62580;54.416;11.120;2022-09-12T06:25:37;21.90;63.10
74220;DHT22;62580;54.416;11.120;2022-09-12T06:35:46;21.90;63.20
74220;DHT22;62580;54.416;11.120;2022-09-12T06:45:47;21.90;63.20
74220;DHT22;62580;54.416;11.120;2022-09-12T06:55:55;21.90;63.20
74220;DHT22;62580;54.416;11.120;2022-09-12T07:05:56;21.90;63.20
74220;DHT22;62580;54.416;11.120;2022-09-12T07:16:02;21.80;63.10
74220;DHT22;62580;54.416;11.120;2022-09-12T07:26:03;21.90;63.20
74220;DHT22;62580;54.416;11.120;2022-09-12T07:36:16;21.90;63.20
74220;DHT22;62580;54.416;11.120;2022-09-12T07:46:17;21.90;63.10
74220;DHT22;62580;54.416;11.120;2022-09-12T07:56:20;21.90;63.00
74220;DHT22;62580;54.416;11.120;2022-09-12T08:06:21;21.90;62.90
74220;DHT22;62580;54.416;11.120;2022-09-12T08:16:25;22.00;62.90
74220;DHT22;62580;54.416;11.120;2022-09-12T08:26:26;21.90;62.80
74220;DHT22;62580;54.416;11.120;2022-09-12T08:36:28;21.90;62.80
74220;DHT22;62580;54.416;11.120;2022-09-12T08:46:35;21.90;62.80
74220;DHT22;62580;54.416;11.120;2022-09-12T08:56:38;22.00;62.80
74220;DHT22;62580;54.416;11.120;2022-09-12T09:17:10;22.00;62.80
74220;DHT22;62580;54.416;11.120;2022-09-12T09:27:14;22.00;62.70
74220;DHT22;62580;54.416;11.120;2022-09-12T09:37:31;22.00;62.80
74220;DHT22;62580;54.416;11.120;2022-09-12T09:47:35;22.00;62.70
74220;DHT22;62580;54.416;11.120;2022-09-12T09:57:43;22.00;62.70
74220;DHT22;62580;54.416;11.120;2022-09-12T10:07:48;22.00;62.60
74220;DHT22;62580;54.416;11.120;2022-09-12T10:17:51;22.00;62.60
74220;DHT22;62580;54.416;11.120;2022-09-12T10:27:53;22.00;62.60
74220;DHT22;62580;54.416;11.120;2022-09-12T10:37:58;22.10;62.70
74220;DHT22;62580;54.416;11.120;2022-09-12T10:48:02;22.10;62.70
74220;DHT22;62580;54.416;11.120;2022-09-12T10:58:25;22.10;62.60
74220;DHT22;62580;54.416;11.120;2022-09-12T11:08:50;22.10;62.50
74220;DHT22;62580;54.416;11.120;2022-09-12T11:19:27;22.10;62.40
74220;DHT22;62580;54.416;11.120;2022-09-12T11:29:46;22.20;62.40
74220;DHT22;62580;54.416;11.120;2022-09-12T11:39:50;22.10;62.50
74220;DHT22;62580;54.416;11.120;2022-09-12T11:49:52;22.10;62.40
74220;DHT22;62580;54.416;11.120;2022-09-12T11:59:57;22.20;62.50
74220;DHT22;62580;54.416;11.120;2022-09-12T12:10:01;22.10;62.40
74220;DHT22;62580;54.416;11.120;2022-09-12T12:20:04;22.10;62.40
74220;DHT22;62580;54.416;11.120;2022-09-12T12:40:37;22.20;63.10
74220;DHT22;62580;54.416;11.120;2022-09-12T12:50:38;22.20;62.40
74220;DHT22;62580;54.416;11.120;2022-09-12T13:00:40;22.20;62.30
74220;DHT22;62580;54.416;11.120;2022-09-12T13:10:48;22.20;62.40
74220;DHT22;62580;54.416;11.120;2022-09-12T13:20:54;22.20;62.40
74220;DHT22;62580;54.416;11.120;2022-09-12T13:31:00;22.20;62.40
74220;DHT22;62580;54.416;11.120;2022-09-12T13:41:17;22.20;62.40
74220;DHT22;62580;54.416;11.120;2022-09-12T13:51:22;22.20;62.40
74220;DHT22;62580;54.416;11.120;2022-09-12T14:01:38;22.10;62.40
74220;DHT22;62580;54.416;11.120;2022-09-12T14:11:38;22.20;62.30
74220;DHT22;62580;54.416;11.120;2022-09-12T14:21:41;22.20;62.40
74220;DHT22;62580;54.416;11.120;2022-09-12T14:31:42;22.20;62.40
74220;DHT22;62580;54.416;11.120;2022-09-12T14:41:44;22.20;62.40
74220;DHT22;62580;54.416;11.120;2022-09-12T14:51:52;22.20;62.40
74220;DHT22;62580;54.416;11.120;2022-09-12T15:02:26;22.20;62.40
74220;DHT22;62580;54.416;11.120;2022-09-12T15:12:26;22.20;62.40
74220;DHT22;62580;54.416;11.120;2022-09-12T15:22:29;22.20;62.50
74220;DHT22;62580;54.416;11.120;2022-09-12T15:32:29;22.10;62.40
74220;DHT22;62580;54.416;11.120;2022-09-12T15:42:31;22.10;62.40
74220;DHT22;62580;54.416;11.120;2022-09-12T15:52:32;22.10;62.40
74220;DHT22;62580;54.416;11.120;2022-09-12T16:02:34;22.10;62.50
74220;DHT22;62580;54.416;11.120;2022-09-12T16:12:34;22.10;62.50
74220;DHT22;62580;54.416;11.120;2022-09-12T16:22:37;22.10;62.50
74220;DHT22;62580;54.416;11.120;2022-09-12T16:32:37;22.10;62.50
74220;DHT22;62580;54.416;11.120;2022-09-12T16:42:39;22.10;62.50
74220;DHT22;62580;54.416;11.120;2022-09-12T16:52:40;22.10;62.50
74220;DHT22;62580;54.416;11.120;2022-09-12T17:02:42;22.10;62.50
74220;DHT22;62580;54.416;11.120;2022-09-12T17:12:42;22.00;62.40
74220;DHT22;62580;54.416;11.120;2022-09-12T17:22:44;22.10;62.50
74220;DHT22;62580;54.416;11.120;2022-09-12T17:32:45;22.10;62.50
74220;DHT22;62580;54.416;11.120;2022-09-12T17:42:47;22.00;62.40
74220;DHT22;62580;54.416;11.120;2022-09-12T17:52:48;22.00;62.40
74220;DHT22;62580;54.416;11.120;2022-09-12T18:02:50;22.00;62.40
74220;DHT22;62580;54.416;11.120;2022-09-12T18:12:51;22.00;62.40
74220;DHT22;62580;54.416;11.120;2022-09-12T18:22:53;22.00;62.40
74220;DHT22;62580;54.416;11.120;2022-09-12T18:32:54;22.00;62.40
74220;DHT22;62580;54.416;11.120;2022-09-12T18:42:56;22.00;62.40
74220;DHT22;62580;54.416;11.120;2022-09-12T18:52:56;22.00;62.40
74220;DHT22;62580;54.416;11.120;2022-09-12T19:02:59;22.00;62.40
74220;DHT22;62580;54.416;11.120;2022-09-12T19:12:59;22.00;62.30
74220;DHT22;62580;54.416;11.120;2022-09-12T19:23:01;22.00;62.30
74220;DHT22;62580;54.416;11.120;2022-09-12T19:33:02;22.00;62.30
74220;DHT22;62580;54.416;11.120;2022-09-12T19:43:04;22.00;62.30
74220;DHT22;62580;54.416;11.120;2022-09-12T19:53:05;22.00;62.30
74220;DHT22;62580;54.416;11.120;2022-09-12T20:03:07;22.00;62.30
74220;DHT22;62580;54.416;11.120;2022-09-12T20:13:07;22.00;62.30
74220;DHT22;62580;54.416;11.120;2022-09-12T20:23:09;22.00;62.30
74220;DHT22;62580;54.416;11.120;2022-09-12T20:33:10;22.00;62.30
74220;DHT22;62580;54.416;11.120;2022-09-12T20:43:12;22.00;62.30
74220;DHT22;62580;54.416;11.120;2022-09-12T20:53:13;21.90;62.20
74220;DHT22;62580;54.416;11.120;2022-09-12T21:03:16;21.90;62.20
74220;DHT22;62580;54.416;11.120;2022-09-12T21:13:16;21.90;62.20
74220;DHT22;62580;54.416;11.120;2022-09-12T21:23:19;22.00;62.20
74220;DHT22;62580;54.416;11.120;2022-09-12T21:33:20;21.90;62.90
74220;DHT22;62580;54.416;11.120;2022-09-12T21:43:22;21.90;62.10
74220;DHT22;62580;54.416;11.120;2022-09-12T21:53:23;21.90;62.10
74220;DHT22;62580;54.416;11.120;2022-09-12T22:03:27;21.90;62.10
74220;DHT22;62580;54.416;11.120;2022-09-12T22:13:29;21.90;62.10
74220;DHT22;62580;54.416;11.120;2022-09-12T22:23:31;21.90;62.10
74220;DHT22;62580;54.416;11.120;2022-09-12T22:33:31;21.90;62.10
74220;DHT22;62580;54.416;11.120;2022-09-12T22:43:34;21.90;62.00
74220;DHT22;62580;54.416;11.120;2022-09-12T22:53:35;21.90;62.10
74220;DHT22;62580;54.416;11.120;2022-09-12T23:03:37;21.90;62.00
74220;DHT22;62580;54.416;11.120;2022-09-12T23:13:40;21.90;62.00
74220;DHT22;62580;54.416;11.120;2022-09-12T23:23:43;21.90;62.00
74220;DHT22;62580;54.416;11.120;2022-09-12T23:33:44;21.90;62.00
74220;DHT22;62580;54.416;11.120;2022-09-12T23:43:46;21.90;62.00
74220;DHT22;62580;54.416;11.120;2022-09-12T23:53:47;21.90;62.00
